Time;durP1;ratioP1;P1;durP2;ratioP2;P2;SDS_P1;SDS_P2;PMS_P1;PMS_P2;Temp;Humidity;BMP_temperature;BMP_pressure;BME280_temperature;BME280_humidity;BME280_pressure;Samples;Min_cycle;Max_cycle;Signal;HPM_P1;HPM_P2
2023/05/28 00:00:06;;;;;;;11.10;7.40;;;16.40;99.90;;;;;;5108603;28;20181;-81
2023/05/28 00:02:33;;;;;;;13.53;7.40;;;16.40;99.90;;;;;;5106044;28;20204;-81
2023/05/28 00:04:58;;;;;;;10.70;7.33;;;16.30;99.90;;;;;;5104357;28;20516;-81
2023/05/28 00:07:24;;;;;;;15.90;7.83;;;16.30;99.90;;;;;;5109653;28;20476;-80
2023/05/28 00:09:50;;;;;;;19.67;6.83;;;16.30;99.90;;;;;;5110617;28;20191;-81
2023/05/28 00:12:16;;;;;;;13.90;7.07;;;16.20;99.90;;;;;;5110029;28;20540;-82
2023/05/28 00:14:41;;;;;;;13.83;8.10;;;16.20;99.90;;;;;;5109245;28;20479;-78
2023/05/28 00:17:07;;;;;;;16.63;8.47;;;16.20;99.90;;;;;;5105413;28;20214;-79
2023/05/28 00:19:32;;;;;;;14.80;8.03;;;16.20;99.90;;;;;;5101321;28;20192;-79
2023/05/28 00:21:58;;;;;;;13.50;7.57;;;16.10;99.90;;;;;;5104273;28;20213;-81
2023/05/28 00:24:23;;;;;;;14.40;8.60;;;16.10;99.90;;;;;;5104589;28;20432;-82
2023/05/28 00:26:49;;;;;;;11.43;6.87;;;16.00;99.90;;;;;;5111750;28;20210;-80
2023/05/28 00:29:15;;;;;;;10.60;7.10;;;16.00;99.90;;;;;;5106084;28;20270;-79
2023/05/28 00:31:40;;;;;;;11.23;6.97;;;15.90;99.90;;;;;;5107327;28;20243;-80
2023/05/28 00:34:06;;;;;;;13.30;8.30;;;15.90;99.90;;;;;;5111955;28;20208;-80
2023/05/28 00:36:31;;;;;;;11.27;7.30;;;15.80;99.90;;;;;;5110748;28;20642;-80
2023/05/28 00:38:57;;;;;;;11.20;7.07;;;15.80;99.90;;;;;;5108093;28;20183;-82
2023/05/28 00:41:22;;;;;;;13.63;7.70;;;15.80;99.90;;;;;;5100936;28;20188;-80
2023/05/28 00:43:51;;;;;;;8.63;7.07;;;15.80;99.90;;;;;;5102860;28;20185;-80
2023/05/28 00:46:19;;;;;;;12.07;7.60;;;15.80;99.90;;;;;;5117287;28;20209;-81
2023/05/28 00:48:44;;;;;;;12.13;7.03;;;15.70;99.90;;;;;;5110047;28;20432;-80
2023/05/28 00:51:11;;;;;;;17.30;8.30;;;15.70;99.90;;;;;;5099920;28;21067;-81
2023/05/28 00:53:37;;;;;;;13.37;8.20;;;15.70;99.90;;;;;;5102203;28;20853;-79
2023/05/28 00:56:03;;;;;;;11.90;8.20;;;15.60;99.90;;;;;;5109402;28;20467;-79
2023/05/28 00:58:29;;;;;;;10.97;8.00;;;15.50;99.90;;;;;;5111290;28;20309;-80
2023/05/28 01:00:56;;;;;;;12.57;7.93;;;15.40;99.90;;;;;;5101993;28;20191;-79
2023/05/28 01:03:22;;;;;;;11.93;7.70;;;15.40;99.90;;;;;;5105987;28;20436;-80
2023/05/28 01:05:48;;;;;;;15.57;8.20;;;15.30;99.90;;;;;;5109412;28;20459;-79
2023/05/28 01:08:14;;;;;;;12.60;7.70;;;15.30;99.90;;;;;;5104736;28;20454;-79
2023/05/28 01:10:39;;;;;;;12.37;8.60;;;15.30;99.90;;;;;;5108865;28;20442;-81
2023/05/28 01:13:07;;;;;;;17.67;11.13;;;15.20;99.90;;;;;;5103861;28;20461;-79
2023/05/28 01:15:33;;;;;;;18.87;11.60;;;15.20;99.90;;;;;;5110545;28;20210;-82
2023/05/28 01:18:01;;;;;;;17.40;8.30;;;15.20;99.90;;;;;;5106431;28;20480;-82
2023/05/28 01:20:28;;;;;;;16.37;9.87;;;15.20;99.90;;;;;;5100518;28;20432;-82
2023/05/28 01:22:55;;;;;;;11.17;7.70;;;15.10;99.90;;;;;;5105212;28;20459;-78
2023/05/28 01:25:22;;;;;;;16.03;8.67;;;15.10;99.90;;;;;;5097912;28;20460;-81
2023/05/28 01:27:48;;;;;;;13.33;9.17;;;15.00;99.90;;;;;;5116226;28;20449;-80
2023/05/28 01:30:14;;;;;;;13.13;8.17;;;15.00;99.90;;;;;;5106227;28;20441;-79
2023/05/28 01:32:40;;;;;;;13.80;8.30;;;15.00;99.90;;;;;;5112788;28;20193;-80
2023/05/28 01:35:06;;;;;;;18.00;8.77;;;14.90;99.90;;;;;;5099337;28;20507;-79
2023/05/28 01:37:36;;;;;;;14.40;8.70;;;14.90;99.90;;;;;;5114489;28;20212;-80
2023/05/28 01:40:05;;;;;;;13.20;8.30;;;14.90;99.90;;;;;;5105420;28;20792;-81
2023/05/28 01:42:33;;;;;;;12.90;7.60;;;14.80;99.90;;;;;;5108451;28;20452;-78
2023/05/28 01:45:00;;;;;;;17.03;9.20;;;14.80;99.90;;;;;;5105839;28;20440;-79
2023/05/28 01:47:26;;;;;;;14.57;7.70;;;14.70;99.90;;;;;;5102529;28;20438;-80
2023/05/28 01:49:52;;;;;;;13.97;8.63;;;14.60;99.90;;;;;;5108642;28;20451;-77
2023/05/28 01:52:18;;;;;;;14.43;9.50;;;14.50;99.90;;;;;;5100911;28;20427;-82
2023/05/28 01:54:44;;;;;;;14.37;9.40;;;14.30;99.90;;;;;;5099234;28;20440;-79
2023/05/28 01:57:10;;;;;;;13.13;8.40;;;14.30;99.90;;;;;;5112257;28;20295;-78
2023/05/28 01:59:36;;;;;;;11.50;8.23;;;14.30;99.90;;;;;;5111302;28;20176;-80
2023/05/28 02:02:01;;;;;;;15.27;8.13;;;14.30;99.90;;;;;;5113887;28;20465;-81
2023/05/28 02:04:27;;;;;;;15.17;8.83;;;14.30;99.90;;;;;;5106334;28;20187;-81
2023/05/28 02:06:52;;;;;;;15.47;8.20;;;14.30;99.90;;;;;;5102333;28;20207;-79
2023/05/28 02:09:18;;;;;;;15.30;8.50;;;14.30;99.90;;;;;;5104682;28;20172;-80
2023/05/28 02:11:43;;;;;;;12.97;8.80;;;14.30;99.90;;;;;;5105087;28;20189;-80
2023/05/28 02:14:13;;;;;;;12.17;8.07;;;14.30;99.90;;;;;;5097551;28;20191;-81
2023/05/28 02:16:45;;;;;;;13.17;8.30;;;14.30;99.90;;;;;;5100157;28;20732;-82
2023/05/28 02:19:11;;;;;;;19.27;9.10;;;14.30;99.90;;;;;;5116075;28;20448;-79
2023/05/28 02:21:37;;;;;;;14.67;9.10;;;14.30;99.90;;;;;;5110250;28;20409;-78
2023/05/28 02:24:03;;;;;;;13.00;8.83;;;14.20;99.90;;;;;;5115782;28;20808;-80
2023/05/28 02:26:28;;;;;;;11.57;8.37;;;14.10;99.90;;;;;;5109881;28;20195;-78
2023/05/28 02:28:54;;;;;;;14.13;8.57;;;14.10;99.90;;;;;;5108396;28;20179;-78
2023/05/28 02:31:20;;;;;;;18.40;10.10;;;14.10;99.90;;;;;;5105150;28;20176;-80
2023/05/28 02:33:45;;;;;;;19.23;8.37;;;14.00;99.90;;;;;;5108257;28;20173;-81
2023/05/28 02:36:12;;;;;;;16.73;8.90;;;14.00;99.90;;;;;;5111886;28;20973;-78
2023/05/28 02:38:38;;;;;;;14.23;8.30;;;13.90;99.90;;;;;;5103884;28;20211;-79
2023/05/28 02:41:04;;;;;;;15.67;8.47;;;13.80;99.90;;;;;;5111028;28;20513;-81
2023/05/28 02:43:29;;;;;;;15.13;8.30;;;13.80;99.90;;;;;;5103674;28;20837;-79
2023/05/28 02:45:55;;;;;;;13.00;8.57;;;13.80;99.90;;;;;;5098303;28;20454;-80
2023/05/28 02:48:21;;;;;;;19.30;9.17;;;13.80;99.90;;;;;;5101266;28;20184;-79
2023/05/28 02:50:46;;;;;;;14.67;8.73;;;13.70;99.90;;;;;;5107133;28;20177;-81
2023/05/28 02:53:12;;;;;;;15.77;9.07;;;13.60;99.90;;;;;;5099446;28;20748;-81
2023/05/28 02:55:37;;;;;;;14.10;8.10;;;13.50;99.90;;;;;;5113523;28;20243;-78
2023/05/28 02:58:03;;;;;;;12.13;8.20;;;13.50;99.90;;;;;;5114116;28;20216;-78
2023/05/28 03:00:28;;;;;;;13.83;8.40;;;13.50;99.90;;;;;;5113978;28;20180;-81
2023/05/28 03:02:54;;;;;;;14.53;8.50;;;13.50;99.90;;;;;;5101538;28;20214;-82
2023/05/28 03:05:20;;;;;;;12.70;8.77;;;13.50;99.90;;;;;;5099630;28;20204;-79
2023/05/28 03:07:45;;;;;;;14.10;8.50;;;13.50;99.90;;;;;;5109226;28;20266;-78
2023/05/28 03:10:11;;;;;;;18.47;9.10;;;13.50;99.90;;;;;;5101317;28;20195;-78
2023/05/28 03:12:36;;;;;;;12.10;7.70;;;13.50;99.90;;;;;;5108050;28;20195;-79
2023/05/28 03:15:02;;;;;;;13.03;8.43;;;13.50;99.90;;;;;;5103366;28;20242;-79
2023/05/28 03:17:28;;;;;;;11.70;8.23;;;13.50;99.90;;;;;;5103731;28;20208;-81
2023/05/28 03:19:53;;;;;;;11.87;7.80;;;13.50;99.90;;;;;;5112717;28;20188;-81
2023/05/28 03:22:20;;;;;;;21.07;8.47;;;13.50;99.90;;;;;;5107580;28;20186;-82
2023/05/28 03:24:45;;;;;;;17.90;8.80;;;13.50;99.90;;;;;;5114507;28;20642;-81
2023/05/28 03:27:11;;;;;;;11.93;7.37;;;13.40;99.90;;;;;;5109640;28;20457;-80
2023/05/28 03:29:36;;;;;;;15.33;8.80;;;13.40;99.90;;;;;;5105581;28;20196;-81
2023/05/28 03:32:02;;;;;;;15.20;9.07;;;13.40;99.90;;;;;;5113271;28;20183;-80
2023/05/28 03:34:28;;;;;;;17.13;9.17;;;13.40;99.90;;;;;;5113727;28;20191;-79
2023/05/28 03:36:53;;;;;;;12.10;8.13;;;13.40;99.90;;;;;;5103456;28;20208;-82
2023/05/28 03:39:19;;;;;;;13.30;9.43;;;13.30;1.00;;;;;;5108768;28;20452;-80
2023/05/28 03:41:44;;;;;;;14.37;9.07;;;13.40;1.00;;;;;;5105592;28;20280;-81
2023/05/28 03:44:10;;;;;;;14.60;8.97;;;13.30;1.00;;;;;;5109462;28;20184;-82
2023/05/28 03:46:36;;;;;;;15.83;10.10;;;13.40;1.00;;;;;;5119290;28;20240;-80
2023/05/28 03:49:02;;;;;;;15.70;8.80;;;13.40;1.00;;;;;;5124773;28;20171;-79
2023/05/28 03:51:27;;;;;;;16.83;9.57;;;13.30;1.00;;;;;;5121677;28;20432;-81
2023/05/28 03:53:53;;;;;;;15.33;9.33;;;13.30;1.00;;;;;;5104025;28;20186;-79
2023/05/28 03:56:19;;;;;;;14.70;9.00;;;13.30;1.00;;;;;;5112537;28;20290;-81
2023/05/28 03:58:45;;;;;;;19.53;10.50;;;13.40;1.00;;;;;;5121977;28;20223;-79
2023/05/28 04:01:12;;;;;;;18.30;9.20;;;13.30;1.00;;;;;;5120376;28;20521;-79
2023/05/28 04:03:37;;;;;;;11.97;9.40;;;13.40;1.00;;;;;;5113249;28;20457;-79
2023/05/28 04:06:03;;;;;;;15.37;9.90;;;13.40;1.00;;;;;;5120506;28;20846;-81
2023/05/28 04:08:28;;;;;;;13.67;9.13;;;13.50;1.00;;;;;;5103488;28;20206;-80
2023/05/28 04:10:54;;;;;;;17.23;9.77;;;13.50;1.00;;;;;;5104085;28;20747;-78
2023/05/28 04:13:20;;;;;;;18.00;9.43;;;13.50;1.00;;;;;;5102005;28;20191;-82
2023/05/28 04:15:45;;;;;;;16.77;9.40;;;13.60;1.00;;;;;;5100749;28;20215;-80
2023/05/28 04:18:11;;;;;;;14.70;9.60;;;13.60;1.00;;;;;;5101347;28;20758;-79
2023/05/28 04:20:36;;;;;;;21.30;11.00;;;13.60;1.00;;;;;;5100444;28;20200;-80
2023/05/28 04:23:03;;;;;;;16.60;10.10;;;13.60;1.00;;;;;;5105766;28;20186;-80
2023/05/28 04:25:28;;;;;;;20.97;11.13;;;13.70;1.00;;;;;;5105683;28;20200;-80
2023/05/28 04:27:54;;;;;;;15.20;9.50;;;13.70;1.00;;;;;;5107629;28;20556;-80
2023/05/28 04:30:22;;;;;;;14.27;8.67;;;13.80;1.00;;;;;;5107659;28;20183;-82
2023/05/28 04:32:51;;;;;;;15.60;9.30;;;13.80;1.00;;;;;;5108231;28;20439;-80
2023/05/28 04:35:17;;;;;;;18.77;10.07;;;13.90;1.00;;;;;;5111280;28;20461;-80
2023/05/28 04:37:44;;;;;;;17.53;8.90;;;14.00;1.00;;;;;;5104321;28;20561;-81
2023/05/28 04:40:13;;;;;;;14.00;8.40;;;14.00;1.00;;;;;;5111684;28;20503;-81
2023/05/28 04:42:40;;;;;;;15.03;9.80;;;14.10;1.00;;;;;;5102015;28;20439;-80
2023/05/28 04:45:09;;;;;;;14.93;8.87;;;14.20;1.00;;;;;;5109135;28;20477;-82
2023/05/28 04:47:36;;;;;;;13.47;8.67;;;14.30;1.00;;;;;;5121147;28;20433;-79
2023/05/28 04:50:06;;;;;;;12.10;9.30;;;14.40;1.00;;;;;;5113173;28;21061;-82
2023/05/28 04:52:32;;;;;;;17.50;9.10;;;14.50;1.00;;;;;;5114507;28;20425;-79
2023/05/28 04:54:58;;;;;;;11.80;7.87;;;14.60;99.90;;;;;;5114355;28;20461;-81
2023/05/28 04:57:24;;;;;;;17.00;8.93;;;14.70;99.90;;;;;;5119534;28;20501;-80
2023/05/28 04:59:50;;;;;;;11.73;8.60;;;14.80;99.90;;;;;;5110396;28;20567;-81
2023/05/28 05:02:18;;;;;;;22.57;9.20;;;14.90;99.90;;;;;;5111353;28;20434;-80
2023/05/28 05:04:44;;;;;;;11.30;8.10;;;15.00;99.90;;;;;;5120787;28;20425;-79
2023/05/28 05:07:10;;;;;;;21.00;8.97;;;15.10;99.90;;;;;;5124233;28;20415;-79
2023/05/28 05:09:36;;;;;;;12.87;8.83;;;15.20;99.90;;;;;;5113478;28;20851;-81
2023/05/28 05:12:02;;;;;;;16.47;9.97;;;15.30;99.90;;;;;;5103107;28;20419;-79
2023/05/28 05:14:27;;;;;;;16.97;8.97;;;15.30;99.90;;;;;;5108542;28;20190;-80
2023/05/28 05:16:53;;;;;;;13.10;8.40;;;15.40;99.90;;;;;;5103299;28;20218;-80
2023/05/28 05:19:18;;;;;;;15.00;9.40;;;15.50;99.90;;;;;;5102637;28;20183;-78
2023/05/28 05:21:44;;;;;;;19.30;11.83;;;15.70;99.90;;;;;;5117486;28;20181;-80
2023/05/28 05:24:10;;;;;;;14.10;10.67;;;15.80;99.90;;;;;;5112928;28;20188;-79
2023/05/28 05:26:35;;;;;;;15.70;9.10;;;15.90;99.90;;;;;;5107089;28;20445;-82
2023/05/28 05:29:01;;;;;;;16.00;9.63;;;15.90;99.90;;;;;;5107565;28;20208;-79
2023/05/28 05:31:26;;;;;;;13.83;8.80;;;15.90;99.90;;;;;;5110603;28;20195;-78
2023/05/28 05:33:52;;;;;;;17.50;10.50;;;16.10;99.90;;;;;;5107741;28;20266;-79
2023/05/28 05:36:17;;;;;;;15.87;9.67;;;16.20;99.90;;;;;;5115659;28;20211;-81
2023/05/28 05:38:45;;;;;;;12.67;9.10;;;16.40;99.90;;;;;;5113247;28;20225;-80
2023/05/28 05:41:11;;;;;;;16.37;8.70;;;16.50;99.90;;;;;;5111138;28;20183;-80
2023/05/28 05:43:37;;;;;;;17.27;10.03;;;16.70;99.90;;;;;;5106605;28;20445;-81
2023/05/28 05:46:02;;;;;;;13.40;8.90;;;16.80;99.90;;;;;;5110283;28;20204;-80
2023/05/28 05:48:28;;;;;;;16.10;9.93;;;17.00;99.90;;;;;;5102578;28;20192;-80
2023/05/28 05:50:54;;;;;;;12.87;9.17;;;17.20;99.90;;;;;;5118268;28;20187;-80
2023/05/28 05:53:21;;;;;;;13.80;8.80;;;17.40;99.90;;;;;;5109606;28;20184;-79
2023/05/28 05:55:47;;;;;;;13.40;8.77;;;17.70;99.90;;;;;;5109560;28;20434;-78
2023/05/28 05:58:13;;;;;;;13.40;8.30;;;18.10;99.90;;;;;;5101274;28;21003;-79
2023/05/28 06:00:40;;;;;;;11.53;8.30;;;19.00;99.90;;;;;;5109868;28;20886;-79
2023/05/28 06:03:06;;;;;;;13.57;8.33;;;21.10;99.90;;;;;;5119281;28;20556;-81
2023/05/28 06:05:34;;;;;;;14.53;9.70;;;24.70;99.90;;;;;;5120933;28;20437;-81
2023/05/28 06:08:02;;;;;;;10.50;7.50;;;28.10;99.90;;;;;;5098427;28;20442;-82
2023/05/28 06:10:28;;;;;;;11.00;8.27;;;31.00;99.90;;;;;;5107813;28;20750;-80
2023/05/28 06:12:53;;;;;;;10.07;7.80;;;33.40;99.90;;;;;;5104362;28;20434;-82
2023/05/28 06:15:19;;;;;;;10.70;7.87;;;35.50;99.90;;;;;;5113429;28;20215;-82
2023/05/28 06:17:44;;;;;;;9.87;7.00;;;37.30;99.90;;;;;;5118932;28;20206;-83
2023/05/28 06:20:11;;;;;;;13.03;7.30;;;38.90;99.90;;;;;;5120763;28;20186;-82
2023/05/28 06:22:36;;;;;;;11.40;8.00;;;40.20;99.90;;;;;;5118896;28;20190;-84
2023/05/28 06:25:02;;;;;;;12.03;7.47;;;41.20;99.90;;;;;;5109337;28;20461;-84
2023/05/28 06:27:28;;;;;;;9.80;7.80;;;41.90;99.90;;;;;;5119137;28;20195;-84
2023/05/28 06:29:53;;;;;;;8.57;7.37;;;42.50;99.90;;;;;;5103592;28;20192;-84
2023/05/28 06:32:19;;;;;;;9.57;6.00;;;43.20;99.90;;;;;;5104114;28;20219;-83
2023/05/28 06:34:44;;;;;;;8.77;7.30;;;43.70;96.80;;;;;;5101671;28;20176;-84
2023/05/28 06:37:10;;;;;;;8.20;7.17;;;44.30;99.90;;;;;;5108633;28;20188;-84
2023/05/28 06:39:36;;;;;;;8.03;6.40;;;44.50;86.30;;;;;;5117227;28;20182;-85
2023/05/28 06:42:02;;;;;;;10.23;6.73;;;45.40;79.10;;;;;;5121360;28;20187;-83
2023/05/28 06:44:28;;;;;;;6.67;5.60;;;46.40;73.60;;;;;;5120407;28;20438;-83
2023/05/28 06:46:54;;;;;;;6.67;5.83;;;47.50;66.10;;;;;;5110993;28;20460;-81
2023/05/28 06:49:20;;;;;;;11.67;5.90;;;48.90;62.20;;;;;;5102857;28;20275;-83
2023/05/28 06:51:45;;;;;;;10.47;6.10;;;50.30;58.10;;;;;;5109649;28;20176;-84
2023/05/28 06:54:11;;;;;;;10.13;5.63;;;50.60;52.00;;;;;;5117806;28;20686;-83
2023/05/28 06:56:36;;;;;;;16.00;6.60;;;49.10;44.80;;;;;;5119230;28;20203;-82
2023/05/28 06:59:02;;;;;;;7.03;5.87;;;47.40;38.60;;;;;;5107550;28;20200;-80
2023/05/28 07:01:27;;;;;;;7.73;5.47;;;45.90;33.50;;;;;;5107723;28;20657;-81
2023/05/28 07:03:53;;;;;;;8.87;5.93;;;45.00;30.50;;;;;;5118141;28;20191;-85
2023/05/28 07:06:18;;;;;;;9.33;6.50;;;44.90;30.10;;;;;;5102544;28;20204;-84
2023/05/28 07:08:45;;;;;;;11.10;5.83;;;46.70;32.90;;;;;;5118838;28;20716;-83
2023/05/28 07:11:11;;;;;;;12.13;5.93;;;49.30;34.50;;;;;;5118498;28;20205;-82
2023/05/28 07:13:38;;;;;;;9.37;5.70;;;51.20;35.00;;;;;;5110054;28;20175;-84
2023/05/28 07:16:03;;;;;;;8.20;5.35;;;51.90;31.80;;;;;;5107972;28;20276;-84
2023/05/28 07:18:29;;;;;;;9.93;5.13;;;53.10;31.40;;;;;;5114605;28;20179;-82
2023/05/28 07:20:55;;;;;;;9.27;5.07;;;54.30;31.40;;;;;;5112580;28;20179;-81
2023/05/28 07:23:20;;;;;;;10.40;5.55;;;55.30;30.00;;;;;;5110976;28;20708;-80
2023/05/28 07:25:46;;;;;;;9.27;5.72;;;54.90;26.50;;;;;;5116602;28;20615;-84
2023/05/28 07:28:11;;;;;;;11.30;5.20;;;53.90;23.30;;;;;;5112219;28;20305;-81
2023/05/28 07:30:37;;;;;;;6.63;5.00;;;53.40;20.80;;;;;;5112896;28;20547;-79
2023/05/28 07:33:02;;;;;;;6.53;4.38;;;53.30;19.50;;;;;;5113375;28;20193;-82
2023/05/28 07:35:28;;;;;;;7.63;5.10;;;53.50;18.80;;;;;;5118498;28;20217;-79
2023/05/28 07:37:54;;;;;;;8.20;5.22;;;54.10;19.00;;;;;;5099568;28;20279;-80
2023/05/28 07:40:20;;;;;;;10.65;5.13;;;54.40;18.50;;;;;;5109671;28;20168;-83
2023/05/28 07:42:45;;;;;;;9.30;4.82;;;54.50;17.00;;;;;;5107074;28;20175;-85
2023/05/28 07:45:11;;;;;;;8.02;5.28;;;54.50;16.40;;;;;;5100216;28;20711;-82
2023/05/28 07:47:36;;;;;;;7.35;4.88;;;55.20;16.20;;;;;;5115046;28;20757;-82
2023/05/28 07:50:04;;;;;;;11.88;4.80;;;56.10;17.20;;;;;;5104491;28;20224;-82
2023/05/28 07:52:29;;;;;;;7.32;4.47;;;55.40;24.80;;;;;;5117916;28;20171;-81
2023/05/28 07:54:58;;;;;;;8.07;5.07;;;54.60;13.00;;;;;;5110685;28;20795;-81
2023/05/28 07:57:24;;;;;;;7.38;4.68;;;53.90;11.50;;;;;;5108748;28;20208;-82
2023/05/28 07:59:50;;;;;;;6.47;5.13;;;53.70;11.80;;;;;;5108189;28;20189;-82
2023/05/28 08:02:16;;;;;;;9.33;4.67;;;52.70;9.60;;;;;;5119155;28;20762;-82
2023/05/28 08:04:41;;;;;;;12.37;4.73;;;52.10;8.70;;;;;;5121460;28;20179;-81
2023/05/28 08:07:07;;;;;;;8.13;4.20;;;50.50;6.20;;;;;;5109469;28;20197;-81
2023/05/28 08:09:33;;;;;;;7.20;4.80;;;50.30;7.00;;;;;;5107222;28;20183;-82
2023/05/28 08:12:01;;;;;;;5.73;4.50;;;51.00;9.00;;;;;;5103304;28;20202;-84
2023/05/28 08:14:27;;;;;;;5.33;3.83;;;51.60;10.20;;;;;;5109989;28;20183;-83
2023/05/28 08:16:52;;;;;;;10.57;4.05;;;52.70;11.90;;;;;;5114113;28;20331;-82
2023/05/28 08:19:18;;;;;;;8.68;4.75;;;53.60;12.50;;;;;;5120622;28;20314;-81
2023/05/28 08:21:44;;;;;;;6.53;3.90;;;54.30;13.30;;;;;;5105306;28;20183;-82
2023/05/28 08:24:10;;;;;;;6.28;4.32;;;55.10;13.70;;;;;;5120294;28;20206;-83
2023/05/28 08:26:36;;;;;;;4.97;3.78;;;55.40;13.70;;;;;;5112777;28;20218;-82
2023/05/28 08:29:04;;;;;;;10.30;4.30;;;55.40;12.70;;;;;;5110137;28;20201;-83
2023/05/28 08:31:32;;;;;;;5.38;3.83;;;55.60;13.00;;;;;;5105907;28;20180;-84
2023/05/28 08:33:58;;;;;;;5.57;3.65;;;56.00;12.30;;;;;;5111658;28;20191;-84
2023/05/28 08:36:24;;;;;;;4.72;3.47;;;56.00;11.10;;;;;;5110100;28;20218;-81
2023/05/28 08:38:49;;;;;;;6.18;3.50;;;55.40;9.30;;;;;;5118655;28;20262;-80
2023/05/28 08:41:15;;;;;;;4.93;3.97;;;54.60;7.60;;;;;;5114752;28;20211;-83
2023/05/28 08:43:41;;;;;;;4.53;3.10;;;54.10;6.90;;;;;;5107585;28;20239;-85
2023/05/28 08:46:09;;;;;;;4.47;3.45;;;54.30;7.10;;;;;;5107736;28;20199;-83
2023/05/28 08:48:35;;;;;;;4.50;3.50;;;54.10;6.40;;;;;;5117229;28;20192;-84
2023/05/28 08:51:00;;;;;;;5.43;3.97;;;53.60;4.90;;;;;;5111741;28;20667;-82
2023/05/28 08:53:31;;;;;;;5.28;3.78;;;53.70;5.20;;;;;;5111367;28;20183;-83
2023/05/28 08:55:57;;;;;;;5.15;3.90;;;54.20;7.70;;;;;;5112921;28;20232;-83
2023/05/28 08:58:22;;;;;;;7.43;4.47;;;54.50;6.90;;;;;;5109352;28;20215;-84
2023/05/28 09:00:48;;;;;;;6.82;4.05;;;54.90;7.50;;;;;;5102959;28;20270;-84
2023/05/28 09:03:14;;;;;;;5.05;3.78;;;54.90;7.10;;;;;;5106161;28;20190;-86
2023/05/28 09:05:44;;;;;;;5.65;3.60;;;54.60;6.00;;;;;;5118619;28;20207;-84
2023/05/28 09:08:12;;;;;;;4.10;3.27;;;54.30;5.10;;;;;;5103520;28;20195;-83
2023/05/28 09:10:38;;;;;;;7.80;3.87;;;53.90;3.60;;;;;;5105797;28;20247;-83
2023/05/28 09:13:05;;;;;;;6.73;4.03;;;53.20;2.50;;;;;;5101004;28;20191;-83
2023/05/28 09:15:30;;;;;;;6.87;4.50;;;52.70;1.50;;;;;;5101298;28;20212;-84
2023/05/28 09:17:58;;;;;;;7.20;4.13;;;52.20;1.20;;;;;;5114413;28;20226;-84
2023/05/28 09:20:24;;;;;;;6.00;4.37;;;52.00;1.10;;;;;;5104908;28;20172;-81
2023/05/28 09:23:01;;;;;;;8.00;4.07;;;52.00;1.00;;;;;;5109555;28;21082;-85
2023/05/28 09:25:28;;;;;;;7.53;4.60;;;51.80;1.00;;;;;;5101471;28;20539;-83
2023/05/28 09:27:56;;;;;;;8.60;5.00;;;50.60;1.00;;;;;;5111516;28;20417;-82
2023/05/28 09:30:22;;;;;;;6.23;3.97;;;50.20;1.00;;;;;;5104913;28;20458;-84
2023/05/28 09:32:57;;;;;;;11.20;5.57;;;50.30;1.00;;;;;;5105612;28;20437;-84
2023/05/28 09:35:25;;;;;;;7.20;6.07;;;50.00;1.00;;;;;;5099287;28;20553;-81
2023/05/28 09:37:59;;;;;;;11.77;6.10;;;49.40;1.00;;;;;;5105139;27;20528;-84
2023/05/28 09:40:26;;;;;;;7.97;5.10;;;49.10;7.40;;;;;;5104941;28;20440;-81
2023/05/28 09:42:52;;;;;;;9.27;5.60;;;48.90;1.00;;;;;;5112203;28;20432;-83
2023/05/28 09:45:24;;;;;;;6.57;4.43;;;48.50;1.00;;;;;;5116883;28;20453;-82
2023/05/28 09:47:49;;;;;;;6.30;4.20;;;48.40;1.00;;;;;;5103454;28;20183;-82
2023/05/28 09:50:15;;;;;;;5.80;4.27;;;48.50;1.00;;;;;;5101434;28;20434;-85
2023/05/28 09:52:44;;;;;;;7.03;4.40;;;48.60;1.00;;;;;;5105877;28;20226;-85
2023/05/28 09:55:14;;;;;;;8.93;5.00;;;48.60;1.00;;;;;;5115692;27;20203;-85
2023/05/28 09:58:01;;;;;;;8.97;4.27;;;48.60;1.00;;;;;;5114324;28;20489;-84
2023/05/28 10:00:33;;;;;;;7.20;4.93;;;48.70;1.00;;;;;;5111125;28;20497;-85
2023/05/28 10:03:23;;;;;;;6.00;3.77;;;48.20;1.00;;;;;;5105940;28;20433;-84
2023/05/28 10:05:52;;;;;;;6.03;4.03;;;48.10;1.00;;;;;;5099230;28;20461;-83
2023/05/28 10:08:21;;;;;;;7.47;4.03;;;48.00;1.00;;;;;;5100543;28;20441;-85
2023/05/28 10:10:51;;;;;;;6.30;3.87;;;47.40;1.00;;;;;;5103159;28;20446;-83
2023/05/28 10:13:17;;;;;;;7.30;4.17;;;47.10;1.00;;;;;;5098482;28;20426;-84
2023/05/28 10:15:43;;;;;;;6.37;3.40;;;46.80;1.00;;;;;;5102732;28;20461;-83
2023/05/28 10:18:10;;;;;;;6.57;3.73;;;46.50;1.00;;;;;;5100910;28;20220;-83
2023/05/28 10:20:35;;;;;;;7.37;3.73;;;46.20;6.20;;;;;;5106098;28;20429;-84
2023/05/28 10:23:01;;;;;;;8.17;4.10;;;46.40;1.00;;;;;;5099643;28;20419;-82
2023/05/28 10:25:27;;;;;;;6.70;3.83;;;46.60;1.00;;;;;;5100741;28;20207;-84
2023/05/28 10:28:00;;;;;;;6.27;3.87;;;46.30;1.00;;;;;;5102613;28;20194;-84
2023/05/28 10:30:34;;;;;;;6.10;3.30;;;46.00;1.00;;;;;;5098779;28;20184;-85
2023/05/28 10:33:00;;;;;;;7.70;3.53;;;46.00;1.00;;;;;;5098994;28;20517;-84
2023/05/28 10:35:26;;;;;;;6.83;3.57;;;45.60;1.00;;;;;;5099459;28;20458;-83
2023/05/28 10:38:02;;;;;;;6.90;3.70;;;45.70;1.00;;;;;;5107487;28;20239;-83
2023/05/28 10:40:28;;;;;;;6.17;3.13;;;45.80;1.00;;;;;;5099826;28;20410;-82
2023/05/28 10:42:54;;;;;;;6.93;3.50;;;45.90;1.00;;;;;;5099067;28;20418;-85
2023/05/28 10:45:35;;;;;;;5.93;3.60;;;46.00;1.00;;;;;;5104729;28;20200;-85
2023/05/28 10:48:02;;;;;;;4.30;3.30;;;45.60;1.00;;;;;;5101433;28;20180;-84
2023/05/28 10:50:27;;;;;;;6.30;3.77;;;45.10;1.00;;;;;;5106866;28;20753;-85
2023/05/28 10:53:10;;;;;;;4.07;3.20;;;44.60;1.00;;;;;;5103087;28;20434;-81
2023/05/28 10:55:49;;;;;;;5.47;3.27;;;44.50;1.00;;;;;;5113342;28;20195;-85
2023/05/28 10:58:28;;;;;;;9.40;3.80;;;44.40;1.00;;;;;;5110711;28;20462;-85
2023/05/28 11:01:22;;;;;;;7.37;3.37;;;44.80;1.00;;;;;;5106748;28;20430;-84
2023/05/28 11:03:54;;;;;;;5.60;3.07;;;44.90;1.00;;;;;;5104102;28;20421;-86
2023/05/28 11:06:19;;;;;;;5.00;3.33;;;44.70;1.00;;;;;;5102354;28;20471;-85
2023/05/28 11:08:47;;;;;;;8.67;3.60;;;44.70;1.00;;;;;;5119656;28;20465;-84
2023/05/28 11:11:17;;;;;;;4.93;3.03;;;44.90;1.00;;;;;;5098927;28;20180;-84
2023/05/28 11:13:47;;;;;;;6.33;3.60;;;44.90;1.00;;;;;;5097836;28;20525;-83
2023/05/28 11:16:17;;;;;;;6.23;3.77;;;44.60;1.00;;;;;;5095548;28;20492;-84
2023/05/28 11:19:03;;;;;;;8.13;3.53;;;44.40;1.00;;;;;;5097812;28;20472;-83
2023/05/28 11:21:28;;;;;;;8.03;3.40;;;44.50;1.00;;;;;;5101317;28;20414;-84
2023/05/28 11:24:05;;;;;;;5.83;3.60;;;44.90;1.00;;;;;;5098804;28;20946;-82
2023/05/28 11:26:32;;;;;;;6.33;3.97;;;44.40;1.00;;;;;;5098985;28;20290;-83
2023/05/28 11:28:58;;;;;;;5.00;3.67;;;43.70;1.00;;;;;;5101064;28;20467;-83
2023/05/28 11:31:23;;;;;;;7.33;3.87;;;43.30;1.00;;;;;;5112664;28;20449;-80
2023/05/28 11:33:49;;;;;;;5.70;3.63;;;42.10;1.00;;;;;;5102912;28;20966;-80
2023/05/28 11:36:15;;;;;;;6.70;3.77;;;41.80;1.00;;;;;;5097786;28;20236;-81
2023/05/28 11:38:40;;;;;;;6.40;3.37;;;41.60;1.00;;;;;;5107085;28;20247;-82
2023/05/28 11:41:06;;;;;;;10.30;3.90;;;41.20;1.00;;;;;;5111053;28;20282;-80
2023/05/28 11:43:31;;;;;;;5.63;4.03;;;41.30;1.00;;;;;;5110918;28;20188;-84
2023/05/28 11:45:58;;;;;;;5.10;3.50;;;41.50;1.00;;;;;;5108281;28;20203;-84
2023/05/28 11:48:26;;;;;;;5.80;3.80;;;41.70;1.00;;;;;;5105123;28;20179;-84
2023/05/28 11:51:00;;;;;;;8.97;4.00;;;42.00;1.00;;;;;;5104656;28;20449;-84
2023/05/28 11:53:42;;;;;;;9.30;3.63;;;42.10;1.00;;;;;;5107383;28;20474;-83
2023/05/28 11:56:09;;;;;;;5.87;3.10;;;41.70;1.00;;;;;;5110816;28;20583;-83
2023/05/28 11:58:37;;;;;;;8.57;4.20;;;41.60;1.00;;;;;;5105844;28;20474;-84
2023/05/28 12:01:03;;;;;;;8.23;4.23;;;41.40;1.00;;;;;;5113634;28;20448;-85
2023/05/28 12:03:29;;;;;;;6.27;4.40;;;41.30;1.00;;;;;;5117295;28;20448;-81
2023/05/28 12:05:55;;;;;;;13.13;4.60;;;41.00;1.00;;;;;;5106725;28;20465;-83
2023/05/28 12:08:20;;;;;;;7.70;4.90;;;40.80;1.00;;;;;;5104610;28;20183;-86
2023/05/28 12:10:46;;;;;;;7.83;4.10;;;40.60;1.00;;;;;;5106745;28;20191;-83
2023/05/28 12:13:15;;;;;;;7.77;4.67;;;40.70;4.90;;;;;;5110683;28;20211;-83
2023/05/28 12:15:41;;;;;;;7.73;4.30;;;40.50;4.50;;;;;;5109838;28;20757;-83
2023/05/28 12:18:06;;;;;;;9.73;4.63;;;40.20;1.00;;;;;;5106019;28;20477;-82
2023/05/28 12:20:37;;;;;;;5.83;4.20;;;40.20;1.00;;;;;;5104638;28;20194;-83
2023/05/28 12:23:07;;;;;;;6.00;4.73;;;40.20;1.00;;;;;;5105525;28;20278;-83
2023/05/28 12:25:58;;;;;;;6.43;3.97;;;40.00;1.00;;;;;;5104484;28;20556;-84
2023/05/28 12:28:24;;;;;;;6.90;4.00;;;39.80;1.00;;;;;;5104162;28;20441;-83
2023/05/28 12:30:52;;;;;;;10.13;4.60;;;39.30;1.00;;;;;;5106654;28;20463;-82
2023/05/28 12:33:18;;;;;;;5.03;3.90;;;38.90;1.00;;;;;;5116767;28;20195;-83
2023/05/28 12:35:45;;;;;;;6.83;4.27;;;38.60;1.00;;;;;;5099715;28;20445;-83
2023/05/28 12:38:13;;;;;;;6.20;4.20;;;38.70;1.00;;;;;;5106552;28;20482;-83
2023/05/28 12:40:38;;;;;;;10.83;4.90;;;38.90;1.00;;;;;;5103697;28;20434;-83
2023/05/28 12:43:04;;;;;;;6.57;4.13;;;38.50;1.00;;;;;;5100961;28;20513;-83